Terminal Aerodrome Forecast
Issued by NWS

Current Version | Previous Version | Text Only | Print | Product List | Glossary On
Versions: 1 2 3 4 5 6 7 8 9 10 11 12 13 14 15 16 17
000
FTUS45 KTFX 290533
TAFCTB
TAF
KCTB 290533Z 2906/3006 27010KT 4SM FU BKN035
     FM291600 19020G30KT 5SM FU BKN150
     FM300200 27010G20KT P6SM OVC150=

USA.gov is the U.S. government's official web portal to all federal, state and local government web resources and services.